Flight Track Log - Related Links

Times and Time Zones

All times are in EDT time to prevent confusion due to time zone crossing. See the FFT143 flight status page for this flight to view local times or setup timezone preferences in your user account.

Time Position Orientation Groundspeed Altitude Reporting Facility
EDT Latitude Longitude Course Direction KTS MPH feet Rate Location/Type
Sat 07:04:18 AM 29.9550 -95.3394 54° Northeast 167 192 800  Level Houston Center
Sat 07:05:37 AM 29.9881 -95.2872 54° Northeast 241 277 2,800 2,028 Climbing Houston Center
Sat 07:06:43 AM 30.0586 -95.3267 334° Northwest 255 293 5,700 2,787 Climbing Houston Center
Sat 07:07:44 AM 30.1236 -95.3697 330° Northwest 266 306 8,700 2,529 Climbing Houston Center
Sat 07:08:44 AM 30.1903 -95.4147 330° Northwest 274 315 10,800 2,182 Climbing Houston Center
Sat 07:09:45 AM 30.2675 -95.4689 329° Northwest 321 369 13,100 2,281 Climbing Houston Center
Sat 07:10:45 AM 30.3486 -95.5239 330° Northwest 335 386 15,400 2,380 Climbing Houston Center
Sat 07:11:46 AM 30.4297 -95.5789 330° Northwest 338 389 17,900 2,281 Climbing Houston Center
Sat 07:12:46 AM 30.5136 -95.6367 329° Northwest 349 402 20,000 1,934 Climbing Houston Center
Sat 07:13:47 AM 30.6036 -95.6892 333° Northwest 361 415 21,800 1,686 Climbing Houston Center
Sat 07:14:47 AM 30.7097 -95.7450 336° Northwest 380 437 23,400 1,636 Climbing Houston Center
Sat 07:15:48 AM 30.8106 -95.7989 335° Northwest 393 452 25,100 1,785 Climbing Houston Center
Sat 07:16:48 AM 30.9119 -95.8533 335° Northwest 398 458 27,000 1,537 Climbing Houston Center
Sat 07:17:49 AM 31.0150 -95.9086 335° Northwest 404 465 28,200 1,240 Climbing Houston Center
Sat 07:18:49 AM 31.1200 -95.9653 335° Northwest 412 474 29,500 1,240 Climbing Houston Center
Sat 07:19:50 AM 31.2331 -96.0086 342° North 425 489 30,700 1,091 Climbing Houston Center
Sat 07:20:50 AM 31.3483 -96.0533 342° North 433 498 31,700 1,190 Climbing Houston Center
Sat 07:21:51 AM 31.4508 -96.0931 342° North 434 499 33,100 1,475 Climbing Houston Center
Sat 07:22:52 AM 31.5647 -96.1375 342° North 429 494 34,700 1,388 Climbing Houston Center
Sat 07:23:52 AM 31.6764 -96.1803 342° North 422 486 35,900 1,041 Climbing Houston Center
Sat 07:24:53 AM 31.7872 -96.2247 341° North 418 481 36,800 934 Climbing Houston Center
Sat 07:25:54 AM 31.8981 -96.2683 342° North 417 480 37,800 595 Climbing Houston Center
Sat 07:26:54 AM 32.0106 -96.3114 342° North 420 483 38,000 99 Climbing Houston Center
Sat 07:27:55 AM 32.1225 -96.3569 341° North 421 484 38,000  Level Houston Center
Sat 07:28:56 AM 32.2322 -96.3994 342° North 415 478 38,000  Level Houston Center
Sat 07:29:56 AM 32.3414 -96.4408 342° North 409 471 38,000  Level Houston Center
Sat 07:31:06 AM 32.4689 -96.4900 342° North 411 473 38,000  Level Fort Worth Center
Sat 07:32:06 AM 32.5778 -96.5308 342° North 411 473 38,000  Level Fort Worth Center
Sat 07:33:06 AM 32.6886 -96.5742 342° North 411 473 38,000  Level Fort Worth Center
Sat 07:34:06 AM 32.7994 -96.6150 343° North 411 473 38,000  Level Fort Worth Center
Sat 07:35:06 AM 32.9083 -96.6586 341° North 411 473 38,000  Level Fort Worth Center
Sat 07:36:06 AM 33.0150 -96.6975 343° North 411 473 38,000 -50 Level Fort Worth Center
Sat 07:37:06 AM 33.1217 -96.7364 343° North 411 473 37,900  Descending Fort Worth Center
Sat 07:38:06 AM 33.2264 -96.7828 340° North 401 461 38,000 50 Climbing Fort Worth Center
Sat 07:39:06 AM 33.3164 -96.8592 325° Northwest 394 453 38,000  Level Fort Worth Center
Sat 07:40:06 AM 33.4003 -96.9456 319° Northwest 400 460 38,000  Level Fort Worth Center
Sat 07:41:06 AM 33.4758 -97.0275 318° Northwest 405 466 38,000  Level Fort Worth Center
Sat 07:42:06 AM 33.5783 -97.1342 319° Northwest 410 472 38,000  Level Fort Worth Center
Sat 07:43:06 AM 33.6639 -97.2239 319° Northwest 410 472 38,000  Level Fort Worth Center
Sat 07:44:06 AM 33.7475 -97.3136 318° Northwest 410 472 38,000  Level Fort Worth Center
Sat 07:45:06 AM 33.8331 -97.4036 319° Northwest 410 472 38,000  Level Fort Worth Center
Sat 07:46:06 AM 33.9186 -97.4911 320° Northwest 410 472 38,000  Level Fort Worth Center
Sat 07:47:06 AM 34.0022 -97.5814 318° Northwest 410 472 38,000  Level Fort Worth Center
Sat 07:48:06 AM 34.0875 -97.6692 320° Northwest 410 472 38,000  Level Fort Worth Center
Sat 07:49:06 AM 34.1561 -97.7522 315° West 400 460 38,000  Level Fort Worth Center
Sat 07:50:06 AM 34.2394 -97.8406 319° Northwest 400 460 38,000  Level Fort Worth Center
Sat 07:51:06 AM 34.3308 -97.9392 318° Northwest 394 453 38,000  Level Fort Worth Center
Sat 07:52:06 AM 34.4117 -98.0278 318° Northwest 400 460 38,000  Level Fort Worth Center
Sat 07:53:06 AM 34.4969 -98.1167 319° Northwest 400 460 38,000  Level Fort Worth Center
Sat 07:54:06 AM 34.5819 -98.2081 318° Northwest 400 460 38,000  Level Fort Worth Center
Sat 07:55:06 AM 34.6647 -98.2972 318° Northwest 400 460 38,000  Level Fort Worth Center
Sat 07:56:06 AM 34.7475 -98.3864 318° Northwest 400 460 38,000  Level Fort Worth Center
Sat 07:57:06 AM 34.8281 -98.4758 318° Northwest 400 460 38,000  Level Fort Worth Center
Sat 07:58:06 AM 34.9150 -98.5606 321° Northwest 395 455 38,000  Level Fort Worth Center
Sat 07:59:06 AM 34.9975 -98.6478 319° Northwest 395 455 38,000  Level Fort Worth Center
Sat 08:00:06 AM 35.0697 -98.7300 317° Northwest 395 455 38,000  Level Fort Worth Center
Sat 08:01:06 AM 35.1522 -98.8203 318° Northwest 395 455 38,000  Level Fort Worth Center
Sat 08:02:41 AM 35.2811 -98.9622 318° Northwest 397 457 38,000  Level Kansas City Center
Sat 08:03:42 AM 35.3633 -99.0553 317° Northwest 400 460 38,000  Level Kansas City Center
Sat 08:04:43 AM 35.4478 -99.1486 318° Northwest 404 465 38,000 49 Level Kansas City Center
Sat 08:05:44 AM 35.5317 -99.2422 318° Northwest 405 466 38,100  Climbing Kansas City Center
Sat 08:06:45 AM 35.6164 -99.3358 318° Northwest 404 465 38,000 -50 Descending Kansas City Center
Sat 08:07:45 AM 35.7000 -99.4292 318° Northwest 403 464 38,000  Level Kansas City Center
Sat 08:08:46 AM 35.7831 -99.5225 318° Northwest 400 460 38,000  Level Kansas City Center
Sat 08:09:47 AM 35.8647 -99.6156 317° Northwest 397 457 38,000  Level Kansas City Center
Sat 08:10:48 AM 35.9478 -99.7069 318° Northwest 396 456 38,000  Level Kansas City Center
Sat 08:11:49 AM 36.0297 -99.7986 318° Northwest 395 455 38,000  Level Kansas City Center
Sat 08:12:50 AM 36.1111 -99.8917 317° Northwest 395 455 38,000  Level Kansas City Center
Sat 08:13:51 AM 36.2069 -100.0011 317° Northwest 391 450 38,000  Level Kansas City Center
Sat 08:14:52 AM 36.2875 -100.0917 318° Northwest 389 448 38,000  Level Kansas City Center
Sat 08:15:53 AM 36.3675 -100.1831 317° Northwest 388 447 38,000  Level Kansas City Center
Sat 08:16:54 AM 36.4475 -100.2747 317° Northwest 390 449 38,000 49 Level Kansas City Center
Sat 08:17:55 AM 36.5286 -100.3672 318° Northwest 393 452 38,100 49 Climbing Kansas City Center
Sat 08:18:56 AM 36.6125 -100.4661 317° Northwest 398 458 38,100 -49 Level Kansas City Center
Sat 08:19:57 AM 36.6900 -100.5550 317° Northwest 396 456 38,000 -49 Descending Kansas City Center
Sat 08:20:58 AM 36.7664 -100.6453 317° Northwest 396 456 38,000  Level Kansas City Center
Sat 08:21:59 AM 36.8553 -100.7492 317° Northwest 394 453 38,000  Level Kansas City Center
Sat 08:23:00 AM 36.9328 -100.8394 317° Northwest 395 455 38,000  Level Kansas City Center
Sat 08:24:01 AM 37.0111 -100.9317 317° Northwest 401 461 38,000  Level Kansas City Center
Sat 08:25:02 AM 37.0975 -101.0464 313° West 403 464 38,000  Level Kansas City Center
Sat 08:26:03 AM 37.1681 -101.1511 310° West 407 468 38,000  Level Kansas City Center
Sat 08:27:04 AM 37.2381 -101.2556 310° West 407 468 38,000  Level Kansas City Center
Sat 08:28:05 AM 37.3206 -101.3767 311° West 407 468 38,000 -246 Level Kansas City Center
Sat 08:29:06 AM 37.3911 -101.4778 311° West 403 464 37,500 -689 Descending Kansas City Center
Sat 08:30:07 AM 37.4611 -101.5831 310° West 405 466 36,600 -976 Descending Kansas City Center
Sat 08:31:09 AM 37.5450 -101.7072 310° West 412 474 35,500 -1,024 Descending Kansas City Center
Sat 08:32:10 AM 37.6172 -101.8128 311° West 415 478 34,500 -1,033 Descending Kansas City Center
Sat 08:33:11 AM 37.6997 -101.9358 310° West 411 473 33,400 -1,033 Descending Kansas City Center
Sat 08:34:12 AM 37.7678 -102.0383 310° West 401 461 32,400 -689 Descending Kansas City Center
Sat 08:35:13 AM 37.8356 -102.1389 310° West 394 453 32,000 -197 Descending Kansas City Center
Sat 08:36:14 AM 37.9200 -102.2528 313° West 396 456 32,000  Level Kansas City Center
Sat 08:37:15 AM 37.9917 -102.3492 313° West 393 452 32,000  Level Kansas City Center
Sat 08:38:16 AM 38.0606 -102.4458 312° West 388 447 32,000  Level Kansas City Center
Sat 08:39:29 AM 38.1553 -102.5728 314° West 387 445 32,000  Level Denver Center
Sat 08:40:30 AM 38.2247 -102.6700 312° West 388 447 32,000 49 Level Denver Center
Sat 08:41:31 AM 38.3078 -102.7817 313° West 388 447 32,100  Climbing Denver Center
Sat 08:42:43 AM 38.3778 -102.8789 313° West 389 448 32,000 -45 Descending Denver Center
Sat 08:43:44 AM 38.4697 -103.0089 312° West 385 443 32,000  Level Denver Center
Sat 08:44:45 AM 38.5400 -103.1050 313° West 386 444 32,000  Level Denver Center
Sat 08:45:46 AM 38.6047 -103.1964 312° West 388 447 32,000  Level Denver Center
Sat 08:46:47 AM 38.6769 -103.2975 312° West 383 441 32,000  Level Denver Center
Sat 08:47:48 AM 38.7642 -103.4186 313° West 386 444 32,000  Level Denver Center
Sat 08:48:49 AM 38.8342 -103.5183 312° West 388 447 32,000 -347 Level Denver Center
Sat 08:49:49 AM 38.9092 -103.6214 313° West 386 444 31,300 -1,686 Descending Denver Center
Sat 08:50:50 AM 38.9817 -103.7258 312° West 391 450 28,600 -2,557 Descending Denver Center
Sat 08:51:51 AM 39.0553 -103.8314 312° West 397 457 26,100 -2,311 Descending Denver Center
Sat 08:52:52 AM 39.1283 -103.9344 312° West 391 450 23,900 -2,033 Descending Denver Center
Sat 08:53:52 AM 39.1981 -104.0344 312° West 380 437 22,000 -1,388 Descending Denver Center
Sat 08:54:53 AM 39.2636 -104.1267 313° West 348 400 21,100 -1,180 Descending Denver Center
Sat 08:55:54 AM 39.3336 -104.1892 325° Northwest 309 356 19,600 -1,525 Descending Denver Center
Sat 08:56:55 AM 39.4133 -104.2489 330° Northwest 307 353 18,000 -1,328 Descending Denver Center
Sat 08:57:56 AM 39.4817 -104.3064 327° Northwest 293 337 16,900 -1,041 Descending Denver Center
Sat 08:58:56 AM 39.5539 -104.3644 328° Northwest 303 349 15,900 -1,041 Descending Denver Center
Sat 08:59:57 AM 39.6247 -104.4236 327° Northwest 302 348 14,800 -885 Descending Denver Center
Sat 09:00:58 AM 39.6933 -104.4786 328° Northwest 289 333 14,100 -934 Descending Denver Center
Sat 09:01:59 AM 39.7606 -104.5231 333° Northwest 252 290 12,900 -934 Descending Denver Center
Sat 09:03:00 AM 39.8278 -104.5222 North 240 276 12,200 -694 Descending Denver Center
Sat 09:04:00 AM 39.8864 -104.5225 360° North 212 244 11,500 -595 Descending Denver Center
Sat 09:05:01 AM 39.9433 -104.5219 360° North 206 237 11,000 -984 Descending Denver Center
Sat 09:06:02 AM 40.0072 -104.5192 North 214 246 9,500 -1,279 Descending Denver Center
Sat 09:07:03 AM 40.0681 -104.5269 354° North 224 258 8,400 -885 Descending Denver Center
Sat 09:08:04 AM 40.0753 -104.6036 277° West 217 250 7,700 -595 Descending Denver Center
Sat 09:09:04 AM 40.0367 -104.6542 225° Southwest 205 236 7,200 -347 Descending Denver Center
Sat 09:10:05 AM 39.9839 -104.6853 204° Southwest 210 242 7,000 -590 Descending Denver Center
Sat 09:11:06 AM 39.9300 -104.6867 181° South 182 209 6,000 -836 Descending Denver Center
Sat 09:12:07 AM 39.8939 -104.6869 180° South 147 169 5,300 -689 Descending Denver Center
Sat 09:14:00 AM 39.8617 -104.6732 199° South  Level Estimated
Sat 09:21:00 AM 39.8617 -104.6732 199° South  Level Estimated
Sat 09:22:00 AM 39.8617 -104.6732 199° South  Level Estimated

Login

Don't have an account? Register now (free) for customized features, flight alerts, and more!